Time;durP1;ratioP1;P1;durP2;ratioP2;P2;SDS_P1;SDS_P2;PMS_P1;PMS_P2;Temp;Humidity;BMP_temperature;BMP_pressure;BME280_temperature;BME280_humidity;BME280_pressure;Samples;Min_cycle;Max_cycle;Signal;HPM_P1;HPM_P2
2021/09/13 00:01:38;;;;;;;;;;;;;;;17.89;49.72;99411.00;5091654;28;845;-58
2021/09/13 00:04:05;;;;;;;;;;;;;;;17.81;50.03;99412.50;5091725;28;822;-58
2021/09/13 00:06:35;;;;;;;;;;;;;;;17.78;50.00;99427.41;5091603;28;1866;-58
2021/09/13 00:09:01;;;;;;;;;;;;;;;17.78;49.74;99421.84;5091435;28;857;-58
2021/09/13 00:11:28;;;;;;;;;;;;;;;17.77;49.71;99428.66;5073225;28;893;-58
2021/09/13 00:13:54;;;;;;;;;;;;;;;17.68;49.84;99432.19;5091468;28;806;-58
2021/09/13 00:16:21;;;;;;;;;;;;;;;17.57;50.28;99428.28;5091547;28;875;-58
2021/09/13 00:18:47;;;;;;;;;;;;;;;17.41;50.17;99427.28;5091449;28;1326;-58
2021/09/13 00:21:14;;;;;;;;;;;;;;;17.17;50.41;99429.78;5091540;28;841;-58
2021/09/13 00:23:41;;;;;;;;;;;;;;;16.94;50.91;99425.44;5091493;28;810;-58
2021/09/13 00:26:07;;;;;;;;;;;;;;;16.89;51.40;99426.81;5073441;28;1913;-58
2021/09/13 00:28:34;;;;;;;;;;;;;;;17.04;51.22;99424.28;5091739;28;823;-58
2021/09/13 00:31:00;;;;;;;;;;;;;;;17.20;50.70;99419.72;5091469;28;795;-58
2021/09/13 00:33:27;;;;;;;;;;;;;;;17.28;50.68;99421.78;5091110;28;827;-58
2021/09/13 00:35:53;;;;;;;;;;;;;;;17.38;50.37;99427.41;5091087;28;835;-59
2021/09/13 00:38:19;;;;;;;;;;;;;;;17.40;50.29;99422.16;5091112;28;893;-58
2021/09/13 00:40:46;;;;;;;;;;;;;;;17.40;50.33;99427.75;5091054;28;814;-58
2021/09/13 00:52:48;;;;;;;;;;;;;;;17.32;50.66;99425.19;5094967;28;640;-60
2021/09/13 00:55:35;;;;;;;;;;;;;;;17.26;51.04;99426.25;5032224;28;926;-60
2021/09/13 00:58:01;;;;;;;;;;;;;;;17.24;50.95;99421.16;5032222;28;815;-60
2021/09/13 01:00:28;;;;;;;;;;;;;;;17.19;51.17;99421.72;5032098;28;1366;-60
2021/09/13 01:02:54;;;;;;;;;;;;;;;17.14;51.65;99417.53;5032151;28;822;-60
2021/09/13 01:05:21;;;;;;;;;;;;;;;17.15;51.38;99423.88;5032201;28;1078;-60
2021/09/13 01:07:48;;;;;;;;;;;;;;;17.15;51.54;99421.09;5032060;28;1947;-60
2021/09/13 01:10:16;;;;;;;;;;;;;;;17.22;51.15;99418.03;5032348;28;803;-60
2021/09/13 01:12:42;;;;;;;;;;;;;;;17.24;51.34;99423.16;5032066;28;1427;-60
2021/09/13 01:15:08;;;;;;;;;;;;;;;17.23;51.23;99421.59;5031981;28;962;-60
2021/09/13 01:17:34;;;;;;;;;;;;;;;17.18;51.25;99422.97;5032031;28;981;-60
2021/09/13 01:20:01;;;;;;;;;;;;;;;17.16;51.55;99417.06;5031847;28;1471;-60
2021/09/13 01:22:28;;;;;;;;;;;;;;;17.16;51.43;99421.88;5032032;28;803;-58
2021/09/13 01:24:55;;;;;;;;;;;;;;;17.14;51.41;99417.53;5031814;28;1268;-58
2021/09/13 01:27:21;;;;;;;;;;;;;;;17.14;51.48;99420.31;5031459;28;1909;-59
2021/09/13 01:29:48;;;;;;;;;;;;;;;17.11;51.78;99426.81;5031669;28;811;-60
2021/09/13 01:32:14;;;;;;;;;;;;;;;17.10;51.69;99425.25;5045141;28;1060;-58
2021/09/13 01:34:41;;;;;;;;;;;;;;;17.11;51.82;99428.81;5053552;28;901;-59
2021/09/13 01:37:07;;;;;;;;;;;;;;;17.13;51.62;99427.16;5053571;28;834;-60
2021/09/13 01:39:34;;;;;;;;;;;;;;;17.11;51.70;99431.59;5053440;28;901;-58
2021/09/13 01:42:01;;;;;;;;;;;;;;;17.10;51.72;99427.28;5053482;28;830;-58
2021/09/13 01:44:27;;;;;;;;;;;;;;;17.10;51.92;99433.63;5053358;28;799;-59
2021/09/13 01:46:55;;;;;;;;;;;;;;;17.08;51.86;99438.13;5053249;28;1886;-60
2021/09/13 01:49:22;;;;;;;;;;;;;;;17.05;52.20;99436.25;5053326;28;853;-60
2021/09/13 01:51:49;;;;;;;;;;;;;;;17.06;52.21;99427.41;5053343;28;809;-58
2021/09/13 01:57:20;;;;;;;;;;;;;;;17.04;52.48;99426.31;5053144;28;629;-59
2021/09/13 01:59:47;;;;;;;;;;;;;;;17.01;52.36;99432.81;5053055;28;846;-59
2021/09/13 02:02:13;;;;;;;;;;;;;;;17.01;52.56;99441.19;5068419;28;1231;-58
2021/09/13 02:04:40;;;;;;;;;;;;;;;17.04;52.42;99438.25;5053192;28;802;-58
2021/09/13 02:07:06;;;;;;;;;;;;;;;16.99;52.65;99441.63;5052902;28;1897;-60
2021/09/13 02:09:31;;;;;;;;;;;;;;;16.98;52.74;99434.47;5052932;28;842;-60
2021/09/13 02:11:58;;;;;;;;;;;;;;;16.95;52.73;99435.41;5052924;28;920;-60
2021/09/13 02:14:25;;;;;;;;;;;;;;;16.94;52.94;99437.41;5052764;28;830;-58
2021/09/13 02:16:51;;;;;;;;;;;;;;;16.98;52.69;99442.06;5052696;28;1017;-58
2021/09/13 02:19:17;;;;;;;;;;;;;;;16.97;52.76;99440.53;5069824;28;1263;-58
2021/09/13 02:21:44;;;;;;;;;;;;;;;17.04;52.49;99437.47;5092854;28;826;-58
2021/09/13 02:24:11;;;;;;;;;;;;;;;17.02;52.64;99434.34;5092797;28;854;-58
2021/09/13 02:26:37;;;;;;;;;;;;;;;16.99;52.93;99432.47;5092710;28;1914;-58
2021/09/13 02:29:04;;;;;;;;;;;;;;;16.97;52.95;99444.09;5092759;28;879;-59
2021/09/13 02:31:31;;;;;;;;;;;;;;;16.93;53.10;99438.63;5092944;28;961;-60
2021/09/13 02:33:58;;;;;;;;;;;;;;;16.91;52.94;99440.31;5092731;28;870;-58
2021/09/13 02:36:25;;;;;;;;;;;;;;;16.85;53.31;99442.91;5092601;28;887;-60
2021/09/13 02:38:51;;;;;;;;;;;;;;;16.85;53.20;99440.13;5092616;28;834;-58
2021/09/13 02:41:17;;;;;;;;;;;;;;;16.84;53.41;99443.38;5092456;28;837;-58
2021/09/13 02:43:44;;;;;;;;;;;;;;;16.82;53.45;99437.47;5092433;28;858;-60
2021/09/13 02:46:14;;;;;;;;;;;;;;;16.77;53.57;99446.38;5092656;28;1893;-60
2021/09/13 02:48:41;;;;;;;;;;;;;;;16.68;53.81;99442.28;5092351;28;822;-60
2021/09/13 02:51:07;;;;;;;;;;;;;;;16.65;53.98;99450.81;5092403;28;877;-60
2021/09/13 02:53:35;;;;;;;;;;;;;;;16.63;53.99;99448.47;5092277;28;811;-58
2021/09/13 02:56:01;;;;;;;;;;;;;;;16.67;53.78;99443.53;5092330;28;830;-58
2021/09/13 03:10:40;;;;;;;;;;;;;;;17.01;52.64;99443.97;5092335;28;613;-59
2021/09/13 03:13:06;;;;;;;;;;;;;;;17.11;52.35;99449.16;5092269;28;837;-59
2021/09/13 03:15:35;;;;;;;;;;;;;;;17.17;52.25;99446.53;5091931;28;1050;-60
2021/09/13 03:18:01;;;;;;;;;;;;;;;17.21;52.24;99457.59;5091897;28;889;-59
2021/09/13 03:20:28;;;;;;;;;;;;;;;17.21;52.09;99447.19;5091786;28;1433;-58
2021/09/13 03:22:55;;;;;;;;;;;;;;;17.28;51.93;99441.34;5092102;28;974;-60
2021/09/13 03:25:24;;;;;;;;;;;;;;;17.33;51.76;99454.72;5091792;28;767;-60
2021/09/13 03:27:51;;;;;;;;;;;;;;;17.40;51.62;99450.84;5091732;28;1913;-60
2021/09/13 03:30:17;;;;;;;;;;;;;;;17.44;51.56;99443.13;5091754;28;1004;-58
2021/09/13 03:32:43;;;;;;;;;;;;;;;17.49;51.41;99445.31;5091724;28;831;-60
2021/09/13 03:35:10;;;;;;;;;;;;;;;17.52;51.40;99440.84;5091680;28;832;-58
2021/09/13 03:37:36;;;;;;;;;;;;;;;17.57;51.10;99451.41;5091718;28;799;-59
2021/09/13 03:40:04;;;;;;;;;;;;;;;17.58;51.17;99452.19;5091797;28;785;-58
2021/09/13 03:42:30;;;;;;;;;;;;;;;17.53;51.34;99445.94;5091776;28;806;-58
2021/09/13 03:44:56;;;;;;;;;;;;;;;17.51;51.38;99456.03;5091822;28;846;-59
2021/09/13 03:47:23;;;;;;;;;;;;;;;17.54;51.40;99453.09;5091764;28;1889;-60
2021/09/13 03:49:51;;;;;;;;;;;;;;;17.57;51.23;99450.63;5091756;28;794;-59
2021/09/13 03:52:18;;;;;;;;;;;;;;;17.62;51.15;99452.81;5091765;28;818;-60
2021/09/13 03:54:44;;;;;;;;;;;;;;;17.64;51.10;99461.53;5073386;28;914;-60
2021/09/13 03:57:11;;;;;;;;;;;;;;;17.65;51.03;99463.09;5091799;28;869;-58
2021/09/13 03:59:37;;;;;;;;;;;;;;;17.67;50.70;99466.97;5092059;28;802;-60
2021/09/13 04:02:03;;;;;;;;;;;;;;;17.72;50.63;99463.56;5092087;28;778;-60
2021/09/13 04:04:30;;;;;;;;;;;;;;;17.78;50.36;99463.00;5091698;28;877;-60
2021/09/13 04:07:15;;;;;;;;;;;;;;;17.80;50.33;99466.88;5091362;28;1952;-58
2021/09/13 04:09:51;;;;;;;;;;;;;;;17.85;50.09;99466.28;5091414;28;929;-58
2021/09/13 04:12:18;;;;;;;;;;;;;;;17.93;50.01;99458.41;5091356;28;830;-59
2021/09/13 04:14:43;;;;;;;;;;;;;;;17.98;49.66;99462.59;5091306;28;877;-58
2021/09/13 04:17:10;;;;;;;;;;;;;;;18.02;49.68;99466.03;5091662;28;1028;-58
2021/09/13 04:29:47;;;;;;;;;;;;;;;18.45;48.72;99467.81;5073855;28;1353;-60
2021/09/13 04:32:14;;;;;;;;;;;;;;;18.55;48.48;99477.78;5095074;28;862;-58
2021/09/13 04:34:41;;;;;;;;;;;;;;;18.70;48.05;99477.19;5094947;28;826;-58
2021/09/13 04:37:07;;;;;;;;;;;;;;;18.84;47.72;99478.59;5094946;28;846;-60
2021/09/13 04:39:33;;;;;;;;;;;;;;;18.92;47.47;99469.41;5094877;28;811;-58
2021/09/13 04:42:03;;;;;;;;;;;;;;;19.04;47.44;99466.91;5094874;28;836;-59
2021/09/13 04:44:29;;;;;;;;;;;;;;;19.17;46.80;99473.13;5094779;28;900;-58
2021/09/13 04:46:56;;;;;;;;;;;;;;;19.29;46.73;99465.78;5094613;28;1917;-58
2021/09/13 05:01:33;;;;;;;;;;;;;;;20.05;45.39;99463.78;5094537;28;664;-60
2021/09/13 05:04:00;;;;;;;;;;;;;;;20.17;45.05;99467.63;5094441;28;790;-59
2021/09/13 05:09:37;;;;;;;;;;;;;;;20.44;44.75;99472.28;5094334;28;616;-58
2021/09/13 05:17:14;;;;;;;;;;;;;;;20.73;44.44;99470.84;5359356;22;1493;-55
2021/09/13 05:19:40;;;;;;;;;;;;;;;20.83;43.73;99472.31;5053940;28;842;-56
2021/09/13 05:22:07;;;;;;;;;;;;;;;20.96;43.47;99472.03;5053905;28;893;-56
2021/09/13 05:24:34;;;;;;;;;;;;;;;21.05;43.67;99469.13;5053766;28;823;-55
2021/09/13 05:27:00;;;;;;;;;;;;;;;21.15;43.33;99478.28;5053734;28;1918;-55
2021/09/13 05:32:30;;;;;;;;;;;;;;;21.47;42.74;99473.75;5053567;28;732;-56
2021/09/13 05:34:56;;;;;;;;;;;;;;;21.57;42.12;99465.97;5035746;28;1294;-56
2021/09/13 05:37:28;;;;;;;;;;;;;;;21.66;42.34;99476.31;5053593;28;928;-56
2021/09/13 05:39:55;;;;;;;;;;;;;;;21.77;41.61;99466.03;5053909;28;818;-56
2021/09/13 05:42:20;;;;;;;;;;;;;;;21.90;41.57;99470.56;5053819;28;798;-56
2021/09/13 05:44:50;;;;;;;;;;;;;;;22.07;41.30;99482.06;5053729;28;818;-56
2021/09/13 05:47:16;;;;;;;;;;;;;;;22.19;40.68;99467.66;5053198;28;1894;-56
2021/09/13 05:49:43;;;;;;;;;;;;;;;22.37;40.85;99477.13;5053395;28;794;-56
2021/09/13 05:52:09;;;;;;;;;;;;;;;22.68;40.19;99470.06;5053334;28;811;-56
2021/09/13 05:54:36;;;;;;;;;;;;;;;22.90;39.58;99470.34;5035493;28;829;-56
2021/09/13 05:57:05;;;;;;;;;;;;;;;23.07;38.95;99475.41;5053704;28;893;-55
2021/09/13 05:59:32;;;;;;;;;;;;;;;23.20;39.21;99475.78;5053251;28;810;-56
2021/09/13 06:02:00;;;;;;;;;;;;;;;23.27;39.21;99463.28;5053050;28;850;-55
2021/09/13 06:04:32;;;;;;;;;;;;;;;23.50;38.27;99469.91;5035172;28;1196;-55
2021/09/13 06:19:14;;;;;;;;;;;;;;;24.13;36.93;99466.25;5049039;28;1429;-55
2021/09/13 06:21:41;;;;;;;;;;;;;;;24.23;36.92;99473.25;5052741;28;830;-56
2021/09/13 06:36:43;;;;;;;;;;;;;;;25.45;34.74;99485.47;5052543;28;681;-55
2021/09/13 06:39:10;;;;;;;;;;;;;;;25.77;34.28;99493.69;5052146;28;802;-55
2021/09/13 06:41:37;;;;;;;;;;;;;;;25.90;33.77;99489.59;5052609;28;826;-56
2021/09/13 06:44:03;;;;;;;;;;;;;;;26.18;32.97;99492.38;5051693;28;893;-55
2021/09/13 06:46:41;;;;;;;;;;;;;;;26.50;33.20;99489.97;5052251;28;1973;-55
2021/09/13 07:01:22;;;;;;;;;;;;;;;27.77;30.64;99507.28;5052411;28;616;-55
2021/09/13 07:03:49;;;;;;;;;;;;;;;27.57;30.39;99514.91;5052369;28;853;-56
2021/09/13 07:06:16;;;;;;;;;;;;;;;26.86;31.58;99513.53;5051650;28;1906;-56
2021/09/13 07:08:42;;;;;;;;;;;;;;;26.04;32.80;99517.63;5052083;28;826;-56
2021/09/13 07:11:09;;;;;;;;;;;;;;;25.36;34.58;99527.38;5052077;28;802;-55
2021/09/13 07:13:36;;;;;;;;;;;;;;;25.12;35.09;99525.75;5051854;28;866;-56
2021/09/13 07:16:02;;;;;;;;;;;;;;;25.04;35.19;99525.47;5052024;28;898;-55
2021/09/13 07:18:29;;;;;;;;;;;;;;;25.09;35.05;99517.53;5052236;28;799;-55
2021/09/13 07:20:58;;;;;;;;;;;;;;;25.22;35.05;99515.78;5031903;28;866;-56
2021/09/13 07:23:25;;;;;;;;;;;;;;;25.54;34.54;99507.09;5031841;28;801;-55
2021/09/13 07:25:51;;;;;;;;;;;;;;;25.37;34.47;99521.22;5031837;28;1918;-55
2021/09/13 07:28:20;;;;;;;;;;;;;;;25.37;34.72;99524.03;5032062;28;818;-55
2021/09/13 07:30:47;;;;;;;;;;;;;;;25.62;34.45;99515.81;5031841;28;850;-55
2021/09/13 07:33:14;;;;;;;;;;;;;;;25.78;34.33;99511.47;5014074;28;1189;-54
2021/09/13 07:35:40;;;;;;;;;;;;;;;26.20;33.28;99518.91;5031663;28;857;-56
2021/09/13 07:38:07;;;;;;;;;;;;;;;26.78;32.55;99512.53;5031621;28;870;-56
2021/09/13 07:40:42;;;;;;;;;;;;;;;27.01;31.89;99510.38;5031596;28;811;-56
2021/09/13 07:46:12;;;;;;;;;;;;;;;27.53;31.01;99522.19;5031652;28;1881;-56
2021/09/13 07:48:38;;;;;;;;;;;;;;;27.55;31.16;99525.28;5031362;28;841;-56
2021/09/13 07:51:05;;;;;;;;;;;;;;;27.37;31.21;99527.44;5031622;28;803;-56
2021/09/13 07:53:31;;;;;;;;;;;;;;;27.41;31.27;99530.00;5031713;28;818;-56
2021/09/13 07:55:58;;;;;;;;;;;;;;;27.62;30.84;99530.38;5016496;28;1462;-56
2021/09/13 07:58:24;;;;;;;;;;;;;;;27.53;30.86;99527.88;5035719;28;803;-56
2021/09/13 08:00:50;;;;;;;;;;;;;;;27.14;31.11;99534.50;5035590;28;796;-56
2021/09/13 08:03:17;;;;;;;;;;;;;;;27.17;31.75;99524.97;5035581;28;831;-56
2021/09/13 08:05:47;;;;;;;;;;;;;;;27.10;31.69;99534.81;5035367;28;831;-56
2021/09/13 08:08:14;;;;;;;;;;;;;;;27.15;31.64;99533.25;5035261;28;878;-56
2021/09/13 08:10:40;;;;;;;;;;;;;;;27.33;31.81;99534.69;5035208;28;787;-56
2021/09/13 08:13:06;;;;;;;;;;;;;;;27.46;31.15;99535.66;5017094;28;1292;-56
2021/09/13 08:15:32;;;;;;;;;;;;;;;28.09;30.89;99542.34;5035518;28;919;-56
2021/09/13 08:17:58;;;;;;;;;;;;;;;28.77;29.70;99549.44;5035045;28;794;-56
2021/09/13 08:32:36;;;;;;;;;;;;;;;29.90;27.96;99552.22;5055134;28;624;-56
2021/09/13 08:35:03;;;;;;;;;;;;;;;29.65;27.90;99548.72;5054738;28;798;-56
2021/09/13 08:37:29;;;;;;;;;;;;;;;29.48;28.10;99542.50;5054918;28;846;-56
2021/09/13 08:39:58;;;;;;;;;;;;;;;29.82;27.29;99545.63;5054955;28;826;-56
2021/09/13 08:42:27;;;;;;;;;;;;;;;29.53;27.79;99550.19;5054535;28;798;-56
2021/09/13 08:44:56;;;;;;;;;;;;;;;29.31;28.31;99546.38;5054531;28;858;-56
2021/09/13 08:49:51;;;;;;;;;;;;;;;29.95;27.79;99541.28;5054499;28;657;-56
2021/09/13 08:52:18;;;;;;;;;;;;;;;30.45;26.85;99545.28;5036431;28;1334;-56
2021/09/13 08:54:45;;;;;;;;;;;;;;;30.11;26.31;99543.06;5054426;28;807;-56
2021/09/13 08:57:14;;;;;;;;;;;;;;;30.09;26.06;99540.00;5054298;28;790;-56
2021/09/13 08:59:40;;;;;;;;;;;;;;;29.90;25.39;99537.97;5054225;28;938;-56
2021/09/13 09:02:07;;;;;;;;;;;;;;;30.13;25.69;99534.75;5054258;28;853;-56
2021/09/13 09:04:36;;;;;;;;;;;;;;;30.64;25.42;99533.78;5054210;28;933;-55
2021/09/13 09:07:09;;;;;;;;;;;;;;;30.94;24.63;99524.88;5053285;28;1951;-56
2021/09/13 09:09:36;;;;;;;;;;;;;;;30.85;24.50;99534.63;5054429;28;814;-56
2021/09/13 09:12:06;;;;;;;;;;;;;;;30.74;24.98;99527.06;5054020;28;850;-56
2021/09/13 09:14:48;;;;;;;;;;;;;;;30.29;24.98;99539.38;5053987;28;877;-56
2021/09/13 09:17:23;;;;;;;;;;;;;;;29.71;25.70;99525.88;5054649;28;939;-56
2021/09/13 09:20:07;;;;;;;;;;;;;;;29.76;25.27;99519.31;5053657;28;1395;-56
2021/09/13 09:22:40;;;;;;;;;;;;;;;29.63;25.05;99530.63;5052669;28;1421;-56
2021/09/13 09:25:08;;;;;;;;;;;;;;;29.78;24.97;99525.22;5053857;28;818;-56
2021/09/13 09:27:54;;;;;;;;;;;;;;;29.75;24.04;99523.47;5053688;28;1977;-54
2021/09/13 09:30:21;;;;;;;;;;;;;;;29.42;24.87;99530.44;5053693;28;803;-56
2021/09/13 09:33:07;;;;;;;;;;;;;;;29.35;25.10;99529.00;5053666;28;853;-57
2021/09/13 09:35:48;;;;;;;;;;;;;;;29.07;25.35;99518.75;5053727;28;850;-56
2021/09/13 09:38:33;;;;;;;;;;;;;;;29.00;25.08;99527.16;5053765;28;858;-56
2021/09/13 09:41:04;;;;;;;;;;;;;;;29.01;25.10;99518.06;5035639;28;1196;-56
2021/09/13 09:43:31;;;;;;;;;;;;;;;29.14;25.10;99528.00;5053552;28;890;-56
2021/09/13 09:45:58;;;;;;;;;;;;;;;29.23;25.04;99525.56;5053379;28;1886;-56
2021/09/13 09:48:31;;;;;;;;;;;;;;;29.57;25.22;99524.25;5035589;28;963;-56
2021/09/13 09:50:58;;;;;;;;;;;;;;;29.92;24.83;99534.59;5053372;28;795;-57
2021/09/13 09:53:29;;;;;;;;;;;;;;;29.69;25.15;99526.41;5053172;28;878;-55
2021/09/13 09:56:16;;;;;;;;;;;;;;;29.31;25.90;99526.44;5053283;28;885;-56
2021/09/13 09:58:58;;;;;;;;;;;;;;;29.33;26.25;99517.38;5053184;28;853;-55
2021/09/13 10:01:31;;;;;;;;;;;;;;;29.41;26.86;99520.38;5053186;28;854;-56
2021/09/13 10:04:10;;;;;;;;;;;;;;;29.95;25.85;99518.47;5053100;28;806;-56
2021/09/13 10:06:37;;;;;;;;;;;;;;;30.38;25.56;99515.34;5053087;28;1886;-56
2021/09/13 10:09:04;;;;;;;;;;;;;;;30.35;25.19;99516.47;5053035;28;846;-58
2021/09/13 10:11:31;;;;;;;;;;;;;;;30.12;25.75;99508.28;5053141;28;885;-56
2021/09/13 10:13:58;;;;;;;;;;;;;;;30.34;25.88;99506.38;5053197;28;839;-56
2021/09/13 10:16:24;;;;;;;;;;;;;;;30.23;25.24;99507.31;5053313;28;1035;-56
2021/09/13 10:18:51;;;;;;;;;;;;;;;29.85;26.19;99510.38;5051859;28;1255;-54
2021/09/13 10:21:18;;;;;;;;;;;;;;;29.61;26.55;99502.69;5052969;28;1173;-56
2021/09/13 10:23:45;;;;;;;;;;;;;;;29.78;26.44;99508.13;5053049;28;1359;-56
2021/09/13 10:26:12;;;;;;;;;;;;;;;29.79;25.99;99491.84;5053226;28;1972;-56
2021/09/13 10:28:57;;;;;;;;;;;;;;;29.65;25.97;99502.38;5052938;28;897;-55
2021/09/13 10:31:43;;;;;;;;;;;;;;;29.77;26.44;99500.16;5052510;28;862;-56
2021/09/13 10:34:16;;;;;;;;;;;;;;;30.00;26.09;99497.66;5052505;28;853;-55
2021/09/13 10:37:01;;;;;;;;;;;;;;;30.00;25.96;99494.81;5052491;28;791;-56
2021/09/13 10:39:46;;;;;;;;;;;;;;;29.88;25.84;99495.03;5052457;28;834;-56
2021/09/13 10:42:31;;;;;;;;;;;;;;;29.52;26.36;99488.88;5052491;28;834;-55
2021/09/13 10:45:16;;;;;;;;;;;;;;;29.45;26.15;99501.66;5052393;28;889;-56
2021/09/13 10:47:47;;;;;;;;;;;;;;;29.50;26.26;99489.41;5052285;28;1947;-56
2021/09/13 10:50:16;;;;;;;;;;;;;;;29.79;25.82;99489.75;5052268;28;869;-56
2021/09/13 10:55:45;;;;;;;;;;;;;;;30.01;25.78;99496.34;5052109;28;687;-56
2021/09/13 10:58:13;;;;;;;;;;;;;;;29.74;26.06;99493.44;5052074;28;806;-55
2021/09/13 11:00:40;;;;;;;;;;;;;;;29.82;26.02;99482.94;5051962;28;794;-56
2021/09/13 11:03:32;;;;;;;;;;;;;;;30.17;26.04;99477.41;5052055;28;818;-56
2021/09/13 11:06:03;;;;;;;;;;;;;;;30.63;24.65;99481.66;5051861;28;1937;-56
2021/09/13 11:08:30;;;;;;;;;;;;;;;30.46;24.89;99482.03;5051827;28;830;-56
2021/09/13 11:10:56;;;;;;;;;;;;;;;30.51;25.14;99474.66;5033871;28;1169;-56
2021/09/13 11:13:23;;;;;;;;;;;;;;;30.77;24.59;99473.09;5051804;28;842;-56
2021/09/13 11:15:50;;;;;;;;;;;;;;;30.78;24.34;99475.41;5051841;28;910;-56
2021/09/13 11:18:42;;;;;;;;;;;;;;;30.86;24.29;99479.13;5051658;28;823;-56
2021/09/13 11:21:34;;;;;;;;;;;;;;;30.68;24.97;99472.25;5031583;28;1057;-56
2021/09/13 11:24:05;;;;;;;;;;;;;;;30.53;24.25;99474.88;5031728;28;854;-55
2021/09/13 11:26:33;;;;;;;;;;;;;;;30.67;24.72;99464.25;5031974;28;1981;-56
2021/09/13 11:29:01;;;;;;;;;;;;;;;30.78;24.19;99468.94;5031853;28;850;-56
2021/09/13 11:31:48;;;;;;;;;;;;;;;30.89;23.69;99463.00;5031353;28;858;-55
2021/09/13 11:34:14;;;;;;;;;;;;;;;31.13;24.46;99450.50;5031463;28;1148;-56
2021/09/13 11:36:50;;;;;;;;;;;;;;;31.32;23.56;99447.44;5031605;28;834;-56
2021/09/13 11:42:24;;;;;;;;;;;;;;;31.30;23.17;99448.03;5031571;28;704;-56
2021/09/13 11:44:52;;;;;;;;;;;;;;;31.20;23.94;99455.53;5031605;28;807;-56
2021/09/13 11:47:20;;;;;;;;;;;;;;;31.37;23.15;99446.56;5031356;28;1960;-57
2021/09/13 11:49:48;;;;;;;;;;;;;;;31.35;23.52;99440.66;5031440;28;881;-56
2021/09/13 11:55:31;;;;;;;;;;;;;;;31.06;23.24;99428.38;5031487;28;669;-56
2021/09/13 11:58:19;;;;;;;;;;;;;;;30.95;22.35;99423.69;5031404;28;847;-56
2021/09/13 12:00:47;;;;;;;;;;;;;;;31.12;22.08;99420.44;5031352;28;798;-56
2021/09/13 12:03:14;;;;;;;;;;;;;;;31.40;22.61;99424.69;5031308;28;834;-56
2021/09/13 12:05:43;;;;;;;;;;;;;;;31.84;22.13;99417.06;5031324;28;835;-56
2021/09/13 12:08:14;;;;;;;;;;;;;;;32.14;21.92;99410.78;5031213;28;2064;-56
2021/09/13 12:10:40;;;;;;;;;;;;;;;32.43;21.98;99416.44;5031182;28;866;-56
2021/09/13 12:13:14;;;;;;;;;;;;;;;32.55;21.41;99419.78;5031216;28;937;-57
2021/09/13 12:15:49;;;;;;;;;;;;;;;32.67;21.00;99408.78;5031287;28;915;-56
2021/09/13 12:18:19;;;;;;;;;;;;;;;32.94;20.92;99406.34;5031220;28;863;-56
2021/09/13 12:20:47;;;;;;;;;;;;;;;32.43;20.66;99407.13;5047878;28;1273;-56
2021/09/13 12:23:18;;;;;;;;;;;;;;;31.60;21.96;99420.31;5051111;28;802;-56
2021/09/13 12:25:47;;;;;;;;;;;;;;;31.27;22.49;99411.25;5051073;28;881;-56
2021/09/13 12:28:34;;;;;;;;;;;;;;;31.61;22.06;99413.28;5050979;28;1914;-56
2021/09/13 12:31:01;;;;;;;;;;;;;;;31.97;21.32;99401.16;5050782;28;1056;-56
2021/09/13 12:33:47;;;;;;;;;;;;;;;32.21;21.64;99399.97;5050863;28;874;-57
2021/09/13 12:36:17;;;;;;;;;;;;;;;32.20;21.82;99399.22;5050994;28;802;-57
2021/09/13 12:38:46;;;;;;;;;;;;;;;32.17;21.84;99393.84;5050809;28;850;-56
2021/09/13 12:41:13;;;;;;;;;;;;;;;32.11;21.73;99396.84;5050869;28;886;-57
2021/09/13 12:43:47;;;;;;;;;;;;;;;31.83;20.92;99406.94;5054450;28;823;-56
2021/09/13 12:46:18;;;;;;;;;;;;;;;31.44;22.08;99399.44;5036685;28;1890;-56
2021/09/13 12:48:48;;;;;;;;;;;;;;;31.38;22.31;99407.34;5054522;28;846;-56
2021/09/13 12:51:18;;;;;;;;;;;;;;;31.22;22.36;99400.75;5054475;28;877;-57
2021/09/13 12:54:03;;;;;;;;;;;;;;;31.31;21.74;99394.53;5054484;28;818;-56
2021/09/13 12:56:30;;;;;;;;;;;;;;;31.26;20.94;99396.22;5054477;28;849;-56
2021/09/13 12:59:31;;;;;;;;;;;;;;;31.31;20.99;99391.69;5054314;28;877;-56
2021/09/13 13:01:57;;;;;;;;;;;;;;;31.50;21.35;99397.22;5011571;28;1453;-56
2021/09/13 13:04:36;;;;;;;;;;;;;;;31.63;21.70;99393.50;5054478;28;810;-56
2021/09/13 13:07:06;;;;;;;;;;;;;;;31.24;21.95;99400.94;5054127;28;1947;-56
2021/09/13 13:09:33;;;;;;;;;;;;;;;31.00;21.10;99388.53;5054076;28;798;-56
2021/09/13 13:11:59;;;;;;;;;;;;;;;30.64;21.15;99396.88;5054200;28;877;-56
2021/09/13 13:14:26;;;;;;;;;;;;;;;30.27;21.86;99401.53;5054007;28;869;-56
2021/09/13 13:16:52;;;;;;;;;;;;;;;29.99;21.85;99399.28;5054291;28;1027;-56
2021/09/13 13:19:19;;;;;;;;;;;;;;;29.81;22.41;99392.34;5053685;28;1210;-56
2021/09/13 13:21:48;;;;;;;;;;;;;;;29.79;22.43;99392.16;5053910;28;814;-56
2021/09/13 13:24:16;;;;;;;;;;;;;;;29.92;22.56;99392.91;5053786;28;803;-57
2021/09/13 13:26:44;;;;;;;;;;;;;;;30.24;22.49;99397.72;5053946;28;1910;-56
2021/09/13 13:29:11;;;;;;;;;;;;;;;30.62;21.63;99399.53;5053696;28;832;-57
2021/09/13 13:31:39;;;;;;;;;;;;;;;30.57;21.65;99400.41;5054038;28;846;-56
2021/09/13 13:34:05;;;;;;;;;;;;;;;30.60;21.44;99391.53;5053579;28;1041;-56
2021/09/13 13:36:32;;;;;;;;;;;;;;;30.99;21.38;99389.88;5053643;28;778;-56
2021/09/13 13:38:59;;;;;;;;;;;;;;;31.51;20.80;99387.31;5053416;28;846;-56
2021/09/13 13:41:26;;;;;;;;;;;;;;;31.86;20.09;99393.66;5053538;28;779;-56
2021/09/13 13:43:52;;;;;;;;;;;;;;;31.79;19.67;99389.41;5053482;28;971;-56
2021/09/13 13:46:19;;;;;;;;;;;;;;;31.64;19.22;99395.00;5053381;28;1889;-56
2021/09/13 13:48:46;;;;;;;;;;;;;;;31.46;19.93;99393.94;5053325;28;839;-56
2021/09/13 13:51:13;;;;;;;;;;;;;;;31.33;20.29;99391.91;5053415;28;842;-56
2021/09/13 13:53:39;;;;;;;;;;;;;;;31.08;20.00;99397.19;5053234;28;803;-56
2021/09/13 13:56:08;;;;;;;;;;;;;;;31.01;20.07;99381.53;5053163;28;913;-56
2021/09/13 13:58:34;;;;;;;;;;;;;;;30.87;19.84;99391.47;5053238;28;814;-56
2021/09/13 14:01:01;;;;;;;;;;;;;;;30.85;19.49;99394.06;5053077;28;870;-56
2021/09/13 14:03:28;;;;;;;;;;;;;;;30.53;19.33;99395.84;5053248;28;870;-56
2021/09/13 14:05:55;;;;;;;;;;;;;;;30.35;20.10;99395.97;5052984;28;1053;-56
2021/09/13 14:08:21;;;;;;;;;;;;;;;30.20;20.42;99394.44;5053080;28;1882;-56
2021/09/13 14:10:47;;;;;;;;;;;;;;;29.97;20.32;99393.34;5053233;28;1049;-56
2021/09/13 14:13:13;;;;;;;;;;;;;;;29.68;21.42;99393.06;5052922;28;811;-56
2021/09/13 14:15:40;;;;;;;;;;;;;;;29.43;21.68;99395.38;5034921;28;1267;-56
2021/09/13 14:18:06;;;;;;;;;;;;;;;29.25;21.94;99386.34;5052800;28;850;-56
2021/09/13 14:20:36;;;;;;;;;;;;;;;28.91;22.36;99398.25;5052633;28;1344;-56
2021/09/13 14:23:03;;;;;;;;;;;;;;;28.50;22.77;99395.72;5052619;28;937;-56
2021/09/13 14:25:33;;;;;;;;;;;;;;;28.24;23.41;99391.38;5052653;28;806;-56
2021/09/13 14:28:01;;;;;;;;;;;;;;;28.08;23.41;99386.69;5052562;28;1995;-56
2021/09/13 14:30:28;;;;;;;;;;;;;;;27.93;23.84;99403.34;5052537;28;811;-56
2021/09/13 14:32:55;;;;;;;;;;;;;;;27.80;23.66;99401.94;5052555;28;838;-56
2021/09/13 14:35:22;;;;;;;;;;;;;;;27.80;24.04;99399.09;5052441;28;830;-56
2021/09/13 14:37:48;;;;;;;;;;;;;;;27.84;23.93;99399.53;5052699;28;873;-56
2021/09/13 14:40:15;;;;;;;;;;;;;;;27.93;23.60;99403.34;5052368;28;801;-56
2021/09/13 14:42:42;;;;;;;;;;;;;;;28.07;23.72;99402.19;5052327;28;877;-57
2021/09/13 14:45:09;;;;;;;;;;;;;;;28.41;23.57;99401.75;5052478;28;826;-57
2021/09/13 14:47:36;;;;;;;;;;;;;;;28.85;23.36;99391.88;5052455;28;1890;-57
2021/09/13 14:50:03;;;;;;;;;;;;;;;29.13;22.79;99392.78;5034331;28;1304;-57
2021/09/13 14:52:30;;;;;;;;;;;;;;;29.35;22.56;99397.31;5052205;28;916;-57
2021/09/13 14:54:56;;;;;;;;;;;;;;;29.54;22.17;99397.25;5052171;28;799;-57
2021/09/13 14:57:22;;;;;;;;;;;;;;;29.41;21.61;99392.28;5052046;28;862;-56
2021/09/13 14:59:49;;;;;;;;;;;;;;;29.20;21.77;99398.56;5052020;28;843;-56
2021/09/13 15:02:16;;;;;;;;;;;;;;;29.14;21.84;99389.38;5034073;28;1394;-56
2021/09/13 15:04:42;;;;;;;;;;;;;;;29.23;21.87;99388.97;5051412;28;826;-57
2021/09/13 15:07:08;;;;;;;;;;;;;;;29.02;21.76;99379.44;5051771;28;1952;-56
2021/09/13 15:09:35;;;;;;;;;;;;;;;28.58;22.11;99393.03;5051965;28;830;-56
2021/09/13 15:12:02;;;;;;;;;;;;;;;28.18;22.59;99396.34;5052027;28;885;-56
2021/09/13 15:14:29;;;;;;;;;;;;;;;27.73;22.44;99401.75;5033912;28;1188;-56
2021/09/13 15:16:55;;;;;;;;;;;;;;;27.36;22.45;99403.91;5052165;28;1097;-56